sensor_id;sensor_type;location;lat;lon;timestamp;P1;durP1;ratioP1;P2;durP2;ratioP2
17796;SDS011;55596;53.554;9.916;2023-09-19T00:00:19;5.73;;;1.40;;
17796;SDS011;55596;53.554;9.916;2023-09-19T00:02:46;2.40;;;1.40;;
17796;SDS011;55596;53.554;9.916;2023-09-19T00:05:20;5.20;;;1.47;;
17796;SDS011;55596;53.554;9.916;2023-09-19T00:07:49;1.90;;;1.10;;
17796;SDS011;55596;53.554;9.916;2023-09-19T00:10:16;2.90;;;1.40;;
17796;SDS011;55596;53.554;9.916;2023-09-19T00:12:44;2.83;;;1.53;;
17796;SDS011;55596;53.554;9.916;2023-09-19T00:15:11;6.47;;;1.50;;
17796;SDS011;55596;53.554;9.916;2023-09-19T00:17:42;3.83;;;1.63;;
17796;SDS011;55596;53.554;9.916;2023-09-19T00:20:10;5.33;;;1.93;;
17796;SDS011;55596;53.554;9.916;2023-09-19T00:22:40;7.03;;;1.63;;
17796;SDS011;55596;53.554;9.916;2023-09-19T00:25:08;6.03;;;1.70;;
17796;SDS011;55596;53.554;9.916;2023-09-19T00:27:36;3.20;;;1.77;;
17796;SDS011;55596;53.554;9.916;2023-09-19T00:30:06;2.67;;;1.60;;
17796;SDS011;55596;53.554;9.916;2023-09-19T00:32:39;6.60;;;1.97;;
17796;SDS011;55596;53.554;9.916;2023-09-19T00:35:06;4.37;;;1.67;;
17796;SDS011;55596;53.554;9.916;2023-09-19T00:37:34;3.10;;;1.80;;
17796;SDS011;55596;53.554;9.916;2023-09-19T00:40:03;5.63;;;1.83;;
17796;SDS011;55596;53.554;9.916;2023-09-19T00:42:31;5.97;;;2.00;;
17796;SDS011;55596;53.554;9.916;2023-09-19T00:44:58;5.40;;;1.80;;
17796;SDS011;55596;53.554;9.916;2023-09-19T00:47:28;4.90;;;2.00;;
17796;SDS011;55596;53.554;9.916;2023-09-19T00:49:56;4.73;;;2.07;;
17796;SDS011;55596;53.554;9.916;2023-09-19T00:52:23;6.23;;;2.20;;
17796;SDS011;55596;53.554;9.916;2023-09-19T00:54:52;4.27;;;1.83;;
17796;SDS011;55596;53.554;9.916;2023-09-19T00:57:24;4.43;;;2.03;;
17796;SDS011;55596;53.554;9.916;2023-09-19T00:59:53;3.40;;;1.93;;
17796;SDS011;55596;53.554;9.916;2023-09-19T01:02:37;4.63;;;2.30;;
17796;SDS011;55596;53.554;9.916;2023-09-19T01:05:06;7.00;;;2.83;;
17796;SDS011;55596;53.554;9.916;2023-09-19T01:07:37;5.97;;;2.20;;
17796;SDS011;55596;53.554;9.916;2023-09-19T01:10:05;6.17;;;2.37;;
17796;SDS011;55596;53.554;9.916;2023-09-19T01:12:37;5.37;;;2.50;;
17796;SDS011;55596;53.554;9.916;2023-09-19T01:15:09;7.30;;;2.93;;
17796;SDS011;55596;53.554;9.916;2023-09-19T01:17:41;9.57;;;3.00;;
17796;SDS011;55596;53.554;9.916;2023-09-19T01:20:19;9.70;;;2.83;;
17796;SDS011;55596;53.554;9.916;2023-09-19T01:22:53;5.07;;;2.73;;
17796;SDS011;55596;53.554;9.916;2023-09-19T01:31:04;7.37;;;2.53;;
17796;SDS011;55596;53.554;9.916;2023-09-19T01:33:54;4.50;;;1.97;;
17796;SDS011;55596;53.554;9.916;2023-09-19T01:36:27;3.80;;;2.00;;
17796;SDS011;55596;53.554;9.916;2023-09-19T01:44:24;5.03;;;2.17;;
17796;SDS011;55596;53.554;9.916;2023-09-19T01:46:53;5.10;;;2.10;;
17796;SDS011;55596;53.554;9.916;2023-09-19T01:49:24;4.27;;;1.83;;
17796;SDS011;55596;53.554;9.916;2023-09-19T01:51:53;4.27;;;1.87;;
17796;SDS011;55596;53.554;9.916;2023-09-19T01:54:24;6.97;;;1.97;;
17796;SDS011;55596;53.554;9.916;2023-09-19T01:56:55;3.87;;;1.70;;
17796;SDS011;55596;53.554;9.916;2023-09-19T01:59:28;4.87;;;2.17;;
17796;SDS011;55596;53.554;9.916;2023-09-19T02:01:59;4.73;;;1.70;;
17796;SDS011;55596;53.554;9.916;2023-09-19T02:04:27;6.13;;;1.77;;
17796;SDS011;55596;53.554;9.916;2023-09-19T02:06:55;4.83;;;1.90;;
17796;SDS011;55596;53.554;9.916;2023-09-19T02:09:23;5.27;;;2.33;;
17796;SDS011;55596;53.554;9.916;2023-09-19T02:11:50;7.53;;;2.50;;
17796;SDS011;55596;53.554;9.916;2023-09-19T02:14:17;5.07;;;2.27;;
17796;SDS011;55596;53.554;9.916;2023-09-19T02:16:45;5.80;;;2.70;;
17796;SDS011;55596;53.554;9.916;2023-09-19T02:19:14;6.23;;;2.90;;
17796;SDS011;55596;53.554;9.916;2023-09-19T02:21:42;7.73;;;3.20;;
17796;SDS011;55596;53.554;9.916;2023-09-19T02:24:10;6.10;;;3.47;;
17796;SDS011;55596;53.554;9.916;2023-09-19T02:26:38;9.00;;;3.50;;
17796;SDS011;55596;53.554;9.916;2023-09-19T02:29:06;8.77;;;4.30;;
17796;SDS011;55596;53.554;9.916;2023-09-19T02:31:33;7.43;;;3.97;;
17796;SDS011;55596;53.554;9.916;2023-09-19T02:34:00;7.20;;;3.50;;
17796;SDS011;55596;53.554;9.916;2023-09-19T02:36:29;7.90;;;3.97;;
17796;SDS011;55596;53.554;9.916;2023-09-19T02:38:56;8.93;;;4.03;;
17796;SDS011;55596;53.554;9.916;2023-09-19T02:41:24;7.80;;;3.50;;
17796;SDS011;55596;53.554;9.916;2023-09-19T02:43:54;6.27;;;3.47;;
17796;SDS011;55596;53.554;9.916;2023-09-19T02:46:21;10.77;;;3.57;;
17796;SDS011;55596;53.554;9.916;2023-09-19T02:48:49;10.93;;;3.63;;
17796;SDS011;55596;53.554;9.916;2023-09-19T02:51:16;6.93;;;3.00;;
17796;SDS011;55596;53.554;9.916;2023-09-19T02:53:45;5.83;;;2.87;;
17796;SDS011;55596;53.554;9.916;2023-09-19T02:56:14;5.67;;;2.63;;
17796;SDS011;55596;53.554;9.916;2023-09-19T02:58:41;7.17;;;3.10;;
17796;SDS011;55596;53.554;9.916;2023-09-19T03:01:09;6.77;;;3.07;;
17796;SDS011;55596;53.554;9.916;2023-09-19T03:03:38;8.03;;;2.93;;
17796;SDS011;55596;53.554;9.916;2023-09-19T03:06:06;5.87;;;2.33;;
17796;SDS011;55596;53.554;9.916;2023-09-19T03:08:35;7.20;;;2.43;;
17796;SDS011;55596;53.554;9.916;2023-09-19T03:11:05;8.37;;;2.37;;
17796;SDS011;55596;53.554;9.916;2023-09-19T03:13:36;9.83;;;2.30;;
17796;SDS011;55596;53.554;9.916;2023-09-19T03:16:05;10.40;;;2.60;;
17796;SDS011;55596;53.554;9.916;2023-09-19T03:18:33;7.17;;;2.30;;
17796;SDS011;55596;53.554;9.916;2023-09-19T03:21:01;6.67;;;2.37;;
17796;SDS011;55596;53.554;9.916;2023-09-19T03:23:30;7.20;;;2.23;;
17796;SDS011;55596;53.554;9.916;2023-09-19T03:25:58;7.40;;;2.37;;
17796;SDS011;55596;53.554;9.916;2023-09-19T03:28:27;6.80;;;2.50;;
17796;SDS011;55596;53.554;9.916;2023-09-19T03:30:58;6.97;;;2.50;;
17796;SDS011;55596;53.554;9.916;2023-09-19T03:33:27;9.07;;;2.73;;
17796;SDS011;55596;53.554;9.916;2023-09-19T03:35:56;7.73;;;2.27;;
17796;SDS011;55596;53.554;9.916;2023-09-19T03:38:24;6.03;;;2.73;;
17796;SDS011;55596;53.554;9.916;2023-09-19T03:40:53;8.73;;;2.63;;
17796;SDS011;55596;53.554;9.916;2023-09-19T03:43:20;6.63;;;2.27;;
17796;SDS011;55596;53.554;9.916;2023-09-19T03:45:49;6.70;;;2.00;;
17796;SDS011;55596;53.554;9.916;2023-09-19T03:48:16;9.63;;;2.03;;
17796;SDS011;55596;53.554;9.916;2023-09-19T03:50:44;8.57;;;2.33;;
17796;SDS011;55596;53.554;9.916;2023-09-19T03:53:11;5.47;;;2.10;;
17796;SDS011;55596;53.554;9.916;2023-09-19T03:55:38;6.47;;;1.93;;
17796;SDS011;55596;53.554;9.916;2023-09-19T03:58:06;7.83;;;2.57;;
17796;SDS011;55596;53.554;9.916;2023-09-19T04:00:33;5.87;;;2.00;;
17796;SDS011;55596;53.554;9.916;2023-09-19T04:03:03;5.63;;;2.20;;
17796;SDS011;55596;53.554;9.916;2023-09-19T04:05:31;5.93;;;2.00;;
17796;SDS011;55596;53.554;9.916;2023-09-19T04:07:59;8.37;;;2.00;;
17796;SDS011;55596;53.554;9.916;2023-09-19T04:10:26;6.67;;;1.90;;
17796;SDS011;55596;53.554;9.916;2023-09-19T04:12:53;5.03;;;1.70;;
17796;SDS011;55596;53.554;9.916;2023-09-19T04:15:22;9.03;;;1.83;;
17796;SDS011;55596;53.554;9.916;2023-09-19T04:17:49;8.67;;;1.93;;
17796;SDS011;55596;53.554;9.916;2023-09-19T04:20:18;5.67;;;1.80;;
17796;SDS011;55596;53.554;9.916;2023-09-19T04:22:45;3.63;;;1.90;;
17796;SDS011;55596;53.554;9.916;2023-09-19T04:25:13;7.10;;;2.13;;
17796;SDS011;55596;53.554;9.916;2023-09-19T04:27:41;6.73;;;1.90;;
17796;SDS011;55596;53.554;9.916;2023-09-19T04:30:09;10.40;;;2.03;;
17796;SDS011;55596;53.554;9.916;2023-09-19T04:32:37;5.97;;;1.87;;
17796;SDS011;55596;53.554;9.916;2023-09-19T04:35:06;8.97;;;1.90;;
17796;SDS011;55596;53.554;9.916;2023-09-19T04:37:38;7.77;;;1.93;;
17796;SDS011;55596;53.554;9.916;2023-09-19T04:40:07;7.97;;;1.60;;
17796;SDS011;55596;53.554;9.916;2023-09-19T04:42:38;5.33;;;1.63;;
17796;SDS011;55596;53.554;9.916;2023-09-19T04:45:05;7.43;;;2.00;;
17796;SDS011;55596;53.554;9.916;2023-09-19T04:47:33;7.33;;;1.80;;
17796;SDS011;55596;53.554;9.916;2023-09-19T04:50:00;9.83;;;1.93;;
17796;SDS011;55596;53.554;9.916;2023-09-19T04:52:30;7.57;;;1.77;;
17796;SDS011;55596;53.554;9.916;2023-09-19T04:54:58;9.43;;;2.00;;
17796;SDS011;55596;53.554;9.916;2023-09-19T04:57:25;6.13;;;1.63;;
17796;SDS011;55596;53.554;9.916;2023-09-19T04:59:53;7.07;;;1.57;;
17796;SDS011;55596;53.554;9.916;2023-09-19T05:02:20;5.10;;;1.70;;
17796;SDS011;55596;53.554;9.916;2023-09-19T05:04:47;8.77;;;1.97;;
17796;SDS011;55596;53.554;9.916;2023-09-19T05:07:14;4.90;;;1.90;;
17796;SDS011;55596;53.554;9.916;2023-09-19T05:09:42;8.77;;;1.87;;
17796;SDS011;55596;53.554;9.916;2023-09-19T05:12:12;7.53;;;1.77;;
17796;SDS011;55596;53.554;9.916;2023-09-19T05:14:45;8.27;;;1.60;;
17796;SDS011;55596;53.554;9.916;2023-09-19T05:17:13;9.87;;;2.57;;
17796;SDS011;55596;53.554;9.916;2023-09-19T05:19:42;6.53;;;1.70;;
17796;SDS011;55596;53.554;9.916;2023-09-19T05:22:11;7.40;;;1.77;;
17796;SDS011;55596;53.554;9.916;2023-09-19T05:24:39;8.10;;;1.93;;
17796;SDS011;55596;53.554;9.916;2023-09-19T05:27:06;10.73;;;2.37;;
17796;SDS011;55596;53.554;9.916;2023-09-19T05:29:36;8.03;;;1.97;;
17796;SDS011;55596;53.554;9.916;2023-09-19T05:32:03;12.47;;;2.37;;
17796;SDS011;55596;53.554;9.916;2023-09-19T05:34:30;8.67;;;2.20;;
17796;SDS011;55596;53.554;9.916;2023-09-19T05:36:58;9.97;;;2.20;;
17796;SDS011;55596;53.554;9.916;2023-09-19T05:39:27;7.13;;;2.10;;
17796;SDS011;55596;53.554;9.916;2023-09-19T05:42:08;9.33;;;2.17;;
17796;SDS011;55596;53.554;9.916;2023-09-19T05:47:37;7.27;;;1.90;;
17796;SDS011;55596;53.554;9.916;2023-09-19T05:50:05;8.57;;;2.03;;
17796;SDS011;55596;53.554;9.916;2023-09-19T05:52:36;8.47;;;1.90;;
17796;SDS011;55596;53.554;9.916;2023-09-19T05:55:06;12.93;;;2.67;;
17796;SDS011;55596;53.554;9.916;2023-09-19T05:57:34;8.23;;;2.10;;
17796;SDS011;55596;53.554;9.916;2023-09-19T06:00:02;8.47;;;2.30;;
17796;SDS011;55596;53.554;9.916;2023-09-19T06:02:37;8.33;;;1.97;;
17796;SDS011;55596;53.554;9.916;2023-09-19T06:05:13;8.70;;;2.50;;
17796;SDS011;55596;53.554;9.916;2023-09-19T06:07:41;8.37;;;2.00;;
17796;SDS011;55596;53.554;9.916;2023-09-19T06:10:08;5.90;;;1.93;;
17796;SDS011;55596;53.554;9.916;2023-09-19T06:12:46;10.07;;;1.90;;
17796;SDS011;55596;53.554;9.916;2023-09-19T06:15:14;9.23;;;1.90;;
17796;SDS011;55596;53.554;9.916;2023-09-19T06:17:50;8.07;;;2.30;;
17796;SDS011;55596;53.554;9.916;2023-09-19T06:20:20;6.07;;;2.03;;
17796;SDS011;55596;53.554;9.916;2023-09-19T06:22:51;9.97;;;2.60;;
17796;SDS011;55596;53.554;9.916;2023-09-19T06:25:29;7.57;;;2.00;;
17796;SDS011;55596;53.554;9.916;2023-09-19T06:28:11;8.90;;;2.40;;
17796;SDS011;55596;53.554;9.916;2023-09-19T06:30:39;10.97;;;2.23;;
17796;SDS011;55596;53.554;9.916;2023-09-19T06:33:24;9.40;;;2.50;;
17796;SDS011;55596;53.554;9.916;2023-09-19T06:35:52;10.60;;;3.10;;
17796;SDS011;55596;53.554;9.916;2023-09-19T06:38:24;8.10;;;2.33;;
17796;SDS011;55596;53.554;9.916;2023-09-19T06:40:52;8.83;;;2.40;;
17796;SDS011;55596;53.554;9.916;2023-09-19T06:43:22;11.30;;;2.47;;
17796;SDS011;55596;53.554;9.916;2023-09-19T06:46:03;7.73;;;2.10;;
17796;SDS011;55596;53.554;9.916;2023-09-19T06:48:33;12.20;;;2.67;;
17796;SDS011;55596;53.554;9.916;2023-09-19T06:51:00;7.37;;;2.10;;
17796;SDS011;55596;53.554;9.916;2023-09-19T06:53:30;8.80;;;2.30;;
17796;SDS011;55596;53.554;9.916;2023-09-19T06:55:57;9.37;;;2.20;;
17796;SDS011;55596;53.554;9.916;2023-09-19T06:58:25;8.73;;;2.33;;
17796;SDS011;55596;53.554;9.916;2023-09-19T07:00:53;9.73;;;2.70;;
17796;SDS011;55596;53.554;9.916;2023-09-19T07:03:21;8.90;;;2.50;;
17796;SDS011;55596;53.554;9.916;2023-09-19T07:05:53;11.70;;;2.40;;
17796;SDS011;55596;53.554;9.916;2023-09-19T07:08:23;15.83;;;2.60;;
17796;SDS011;55596;53.554;9.916;2023-09-19T07:10:53;7.13;;;2.73;;
17796;SDS011;55596;53.554;9.916;2023-09-19T07:13:24;7.67;;;2.20;;
17796;SDS011;55596;53.554;9.916;2023-09-19T07:16:05;10.67;;;2.63;;
17796;SDS011;55596;53.554;9.916;2023-09-19T07:18:34;8.40;;;2.27;;
17796;SDS011;55596;53.554;9.916;2023-09-19T07:24:04;11.33;;;2.73;;
17796;SDS011;55596;53.554;9.916;2023-09-19T07:26:33;11.10;;;2.50;;
17796;SDS011;55596;53.554;9.916;2023-09-19T07:29:00;14.60;;;2.63;;
17796;SDS011;55596;53.554;9.916;2023-09-19T07:31:31;10.67;;;2.37;;
17796;SDS011;55596;53.554;9.916;2023-09-19T07:34:12;8.60;;;2.30;;
17796;SDS011;55596;53.554;9.916;2023-09-19T07:36:54;16.27;;;2.80;;
17796;SDS011;55596;53.554;9.916;2023-09-19T07:39:36;10.63;;;2.40;;
17796;SDS011;55596;53.554;9.916;2023-09-19T07:42:17;9.13;;;2.67;;
17796;SDS011;55596;53.554;9.916;2023-09-19T07:44:59;9.77;;;2.23;;
17796;SDS011;55596;53.554;9.916;2023-09-19T07:47:48;10.40;;;2.17;;
17796;SDS011;55596;53.554;9.916;2023-09-19T07:50:15;12.50;;;3.10;;
17796;SDS011;55596;53.554;9.916;2023-09-19T07:52:44;13.17;;;2.90;;
17796;SDS011;55596;53.554;9.916;2023-09-19T07:55:35;14.30;;;3.03;;
17796;SDS011;55596;53.554;9.916;2023-09-19T07:58:16;12.77;;;3.17;;
17796;SDS011;55596;53.554;9.916;2023-09-19T08:00:43;12.37;;;3.30;;
17796;SDS011;55596;53.554;9.916;2023-09-19T08:03:27;15.87;;;4.10;;
17796;SDS011;55596;53.554;9.916;2023-09-19T08:05:59;13.27;;;3.20;;
17796;SDS011;55596;53.554;9.916;2023-09-19T08:08:28;18.50;;;3.87;;
17796;SDS011;55596;53.554;9.916;2023-09-19T08:11:10;14.67;;;3.77;;
17796;SDS011;55596;53.554;9.916;2023-09-19T08:13:46;15.50;;;3.87;;
17796;SDS011;55596;53.554;9.916;2023-09-19T08:16:14;16.47;;;3.70;;
17796;SDS011;55596;53.554;9.916;2023-09-19T08:18:41;12.40;;;3.10;;
17796;SDS011;55596;53.554;9.916;2023-09-19T08:21:08;11.60;;;2.87;;
17796;SDS011;55596;53.554;9.916;2023-09-19T08:23:36;9.60;;;2.80;;
17796;SDS011;55596;53.554;9.916;2023-09-19T08:26:07;11.00;;;3.03;;
17796;SDS011;55596;53.554;9.916;2023-09-19T08:28:36;16.83;;;3.93;;
17796;SDS011;55596;53.554;9.916;2023-09-19T08:31:06;9.43;;;2.40;;
17796;SDS011;55596;53.554;9.916;2023-09-19T08:33:34;12.10;;;3.13;;
17796;SDS011;55596;53.554;9.916;2023-09-19T08:36:01;13.87;;;3.27;;
17796;SDS011;55596;53.554;9.916;2023-09-19T08:38:30;9.07;;;2.30;;
17796;SDS011;55596;53.554;9.916;2023-09-19T08:40:58;13.27;;;3.20;;
17796;SDS011;55596;53.554;9.916;2023-09-19T08:43:25;10.90;;;2.97;;
17796;SDS011;55596;53.554;9.916;2023-09-19T08:45:57;11.73;;;2.90;;
17796;SDS011;55596;53.554;9.916;2023-09-19T08:48:26;12.43;;;3.13;;
17796;SDS011;55596;53.554;9.916;2023-09-19T08:51:10;8.90;;;2.60;;
17796;SDS011;55596;53.554;9.916;2023-09-19T08:53:41;9.60;;;2.80;;
17796;SDS011;55596;53.554;9.916;2023-09-19T08:56:22;9.20;;;2.80;;
17796;SDS011;55596;53.554;9.916;2023-09-19T08:59:06;15.67;;;3.07;;
17796;SDS011;55596;53.554;9.916;2023-09-19T09:01:38;11.37;;;3.00;;
17796;SDS011;55596;53.554;9.916;2023-09-19T09:04:09;8.53;;;2.43;;
17796;SDS011;55596;53.554;9.916;2023-09-19T09:06:38;12.70;;;2.70;;
17796;SDS011;55596;53.554;9.916;2023-09-19T09:09:05;10.57;;;2.23;;
17796;SDS011;55596;53.554;9.916;2023-09-19T09:11:47;10.63;;;2.60;;
17796;SDS011;55596;53.554;9.916;2023-09-19T09:14:21;12.37;;;2.87;;
17796;SDS011;55596;53.554;9.916;2023-09-19T09:16:55;9.13;;;2.90;;
17796;SDS011;55596;53.554;9.916;2023-09-19T09:19:36;11.00;;;3.13;;
17796;SDS011;55596;53.554;9.916;2023-09-19T09:22:17;9.43;;;2.83;;
17796;SDS011;55596;53.554;9.916;2023-09-19T09:24:55;12.93;;;3.23;;
17796;SDS011;55596;53.554;9.916;2023-09-19T09:27:37;14.43;;;3.23;;
17796;SDS011;55596;53.554;9.916;2023-09-19T09:33:08;8.27;;;2.20;;
17796;SDS011;55596;53.554;9.916;2023-09-19T09:35:37;8.83;;;2.50;;
17796;SDS011;55596;53.554;9.916;2023-09-19T09:38:07;10.13;;;2.60;;
17796;SDS011;55596;53.554;9.916;2023-09-19T09:40:45;12.90;;;2.90;;
17796;SDS011;55596;53.554;9.916;2023-09-19T09:43:27;10.37;;;2.47;;
17796;SDS011;55596;53.554;9.916;2023-09-19T09:46:06;9.53;;;2.40;;
17796;SDS011;55596;53.554;9.916;2023-09-19T09:48:38;9.10;;;2.73;;
17796;SDS011;55596;53.554;9.916;2023-09-19T09:51:04;10.47;;;2.70;;
17796;SDS011;55596;53.554;9.916;2023-09-19T09:53:33;9.50;;;2.40;;
17796;SDS011;55596;53.554;9.916;2023-09-19T09:56:02;11.43;;;2.40;;
17796;SDS011;55596;53.554;9.916;2023-09-19T09:58:31;12.13;;;2.50;;
17796;SDS011;55596;53.554;9.916;2023-09-19T10:01:00;9.03;;;2.50;;
17796;SDS011;55596;53.554;9.916;2023-09-19T10:03:34;13.50;;;2.50;;
17796;SDS011;55596;53.554;9.916;2023-09-19T10:06:05;9.77;;;2.27;;
17796;SDS011;55596;53.554;9.916;2023-09-19T10:08:59;11.63;;;2.90;;
17796;SDS011;55596;53.554;9.916;2023-09-19T10:11:37;7.47;;;2.37;;
17796;SDS011;55596;53.554;9.916;2023-09-19T10:14:08;12.07;;;2.43;;
17796;SDS011;55596;53.554;9.916;2023-09-19T10:16:36;10.60;;;2.57;;
17796;SDS011;55596;53.554;9.916;2023-09-19T10:19:21;9.90;;;2.23;;
17796;SDS011;55596;53.554;9.916;2023-09-19T10:21:54;9.57;;;2.30;;
17796;SDS011;55596;53.554;9.916;2023-09-19T10:24:23;8.17;;;2.10;;
17796;SDS011;55596;53.554;9.916;2023-09-19T10:26:52;10.77;;;2.23;;
17796;SDS011;55596;53.554;9.916;2023-09-19T10:29:20;9.10;;;2.50;;
17796;SDS011;55596;53.554;9.916;2023-09-19T10:31:48;7.60;;;2.10;;
17796;SDS011;55596;53.554;9.916;2023-09-19T10:34:20;8.57;;;2.20;;
17796;SDS011;55596;53.554;9.916;2023-09-19T10:36:50;11.83;;;2.10;;
17796;SDS011;55596;53.554;9.916;2023-09-19T10:42:18;8.37;;;2.03;;
17796;SDS011;55596;53.554;9.916;2023-09-19T10:44:49;10.47;;;2.40;;
17796;SDS011;55596;53.554;9.916;2023-09-19T10:47:19;8.97;;;2.23;;
17796;SDS011;55596;53.554;9.916;2023-09-19T10:49:49;9.37;;;2.23;;
17796;SDS011;55596;53.554;9.916;2023-09-19T10:52:17;8.73;;;2.47;;
17796;SDS011;55596;53.554;9.916;2023-09-19T10:54:46;9.23;;;2.10;;
17796;SDS011;55596;53.554;9.916;2023-09-19T10:57:20;7.93;;;2.20;;
17796;SDS011;55596;53.554;9.916;2023-09-19T11:00:03;6.67;;;1.93;;
17796;SDS011;55596;53.554;9.916;2023-09-19T11:05:32;8.57;;;2.00;;
17796;SDS011;55596;53.554;9.916;2023-09-19T11:08:05;7.70;;;2.07;;
17796;SDS011;55596;53.554;9.916;2023-09-19T11:10:45;10.60;;;1.93;;
17796;SDS011;55596;53.554;9.916;2023-09-19T11:13:25;11.17;;;2.57;;
17796;SDS011;55596;53.554;9.916;2023-09-19T11:16:03;9.67;;;2.50;;
17796;SDS011;55596;53.554;9.916;2023-09-19T11:18:50;10.40;;;2.10;;
17796;SDS011;55596;53.554;9.916;2023-09-19T11:24:29;10.07;;;2.10;;
17796;SDS011;55596;53.554;9.916;2023-09-19T11:27:14;11.87;;;2.57;;
17796;SDS011;55596;53.554;9.916;2023-09-19T11:29:59;6.63;;;2.00;;
17796;SDS011;55596;53.554;9.916;2023-09-19T11:35:59;6.90;;;2.13;;
17796;SDS011;55596;53.554;9.916;2023-09-19T11:47:02;10.53;;;2.20;;
17796;SDS011;55596;53.554;9.916;2023-09-19T11:49:30;7.13;;;2.20;;
17796;SDS011;55596;53.554;9.916;2023-09-19T11:51:59;8.57;;;2.13;;
17796;SDS011;55596;53.554;9.916;2023-09-19T11:54:30;11.87;;;2.20;;
17796;SDS011;55596;53.554;9.916;2023-09-19T11:57:05;12.75;;;2.47;;
17796;SDS011;55596;53.554;9.916;2023-09-19T11:59:38;13.80;;;2.30;;
17796;SDS011;55596;53.554;9.916;2023-09-19T12:02:07;9.15;;;2.45;;
17796;SDS011;55596;53.554;9.916;2023-09-19T12:04:40;10.48;;;2.42;;
17796;SDS011;55596;53.554;9.916;2023-09-19T12:07:09;8.13;;;2.42;;
17796;SDS011;55596;53.554;9.916;2023-09-19T12:09:40;9.70;;;2.22;;
17796;SDS011;55596;53.554;9.916;2023-09-19T12:12:09;8.00;;;2.38;;
17796;SDS011;55596;53.554;9.916;2023-09-19T12:14:40;10.35;;;2.80;;
17796;SDS011;55596;53.554;9.916;2023-09-19T12:17:10;9.50;;;2.72;;
17796;SDS011;55596;53.554;9.916;2023-09-19T12:19:38;8.23;;;2.38;;
17796;SDS011;55596;53.554;9.916;2023-09-19T12:22:05;13.00;;;2.38;;
17796;SDS011;55596;53.554;9.916;2023-09-19T12:24:34;9.85;;;2.33;;
17796;SDS011;55596;53.554;9.916;2023-09-19T12:27:03;15.40;;;2.80;;
17796;SDS011;55596;53.554;9.916;2023-09-19T12:29:31;10.95;;;2.88;;
17796;SDS011;55596;53.554;9.916;2023-09-19T12:31:59;8.00;;;2.50;;
17796;SDS011;55596;53.554;9.916;2023-09-19T12:37:16;8.57;;;2.17;;
17796;SDS011;55596;53.554;9.916;2023-09-19T12:39:47;11.48;;;2.50;;
17796;SDS011;55596;53.554;9.916;2023-09-19T12:42:20;12.32;;;2.78;;
17796;SDS011;55596;53.554;9.916;2023-09-19T12:45:03;7.65;;;2.50;;
17796;SDS011;55596;53.554;9.916;2023-09-19T12:47:35;10.18;;;2.65;;
17796;SDS011;55596;53.554;9.916;2023-09-19T12:50:16;9.73;;;2.47;;
17796;SDS011;55596;53.554;9.916;2023-09-19T12:55:40;11.60;;;2.55;;
17796;SDS011;55596;53.554;9.916;2023-09-19T12:58:11;9.70;;;2.72;;
17796;SDS011;55596;53.554;9.916;2023-09-19T13:00:40;9.93;;;2.72;;
17796;SDS011;55596;53.554;9.916;2023-09-19T13:03:13;13.80;;;2.90;;
17796;SDS011;55596;53.554;9.916;2023-09-19T13:05:48;7.25;;;2.55;;
17796;SDS011;55596;53.554;9.916;2023-09-19T13:08:17;11.00;;;2.67;;
17796;SDS011;55596;53.554;9.916;2023-09-19T13:11:08;10.35;;;2.75;;
17796;SDS011;55596;53.554;9.916;2023-09-19T13:13:38;9.77;;;2.60;;
17796;SDS011;55596;53.554;9.916;2023-09-19T13:16:09;8.57;;;2.65;;
17796;SDS011;55596;53.554;9.916;2023-09-19T13:18:43;12.80;;;2.72;;
17796;SDS011;55596;53.554;9.916;2023-09-19T13:21:12;9.02;;;2.55;;
17796;SDS011;55596;53.554;9.916;2023-09-19T13:23:49;10.38;;;2.78;;
17796;SDS011;55596;53.554;9.916;2023-09-19T13:26:18;7.95;;;2.17;;
17796;SDS011;55596;53.554;9.916;2023-09-19T13:28:45;7.57;;;2.42;;
17796;SDS011;55596;53.554;9.916;2023-09-19T13:31:14;7.15;;;2.20;;
17796;SDS011;55596;53.554;9.916;2023-09-19T13:33:45;8.88;;;2.28;;
17796;SDS011;55596;53.554;9.916;2023-09-19T13:36:12;10.93;;;2.47;;
17796;SDS011;55596;53.554;9.916;2023-09-19T13:38:43;7.32;;;2.33;;
17796;SDS011;55596;53.554;9.916;2023-09-19T13:41:27;12.20;;;2.45;;
17796;SDS011;55596;53.554;9.916;2023-09-19T13:43:57;8.38;;;2.45;;
17796;SDS011;55596;53.554;9.916;2023-09-19T13:46:24;9.30;;;2.45;;
17796;SDS011;55596;53.554;9.916;2023-09-19T13:48:52;7.53;;;2.10;;
17796;SDS011;55596;53.554;9.916;2023-09-19T13:51:20;9.77;;;2.47;;
17796;SDS011;55596;53.554;9.916;2023-09-19T13:53:48;14.63;;;3.63;;
17796;SDS011;55596;53.554;9.916;2023-09-19T13:56:15;4.85;;;2.10;;
17796;SDS011;55596;53.554;9.916;2023-09-19T13:58:47;8.50;;;2.55;;
17796;SDS011;55596;53.554;9.916;2023-09-19T14:01:28;7.97;;;2.67;;
17796;SDS011;55596;53.554;9.916;2023-09-19T14:03:55;8.27;;;2.60;;
17796;SDS011;55596;53.554;9.916;2023-09-19T14:06:31;4.78;;;1.98;;
17796;SDS011;55596;53.554;9.916;2023-09-19T14:09:00;11.27;;;2.70;;
17796;SDS011;55596;53.554;9.916;2023-09-19T14:11:36;7.75;;;2.58;;
17796;SDS011;55596;53.554;9.916;2023-09-19T14:14:05;7.88;;;2.40;;
17796;SDS011;55596;53.554;9.916;2023-09-19T14:16:35;6.85;;;2.58;;
17796;SDS011;55596;53.554;9.916;2023-09-19T14:19:07;12.00;;;2.78;;
17796;SDS011;55596;53.554;9.916;2023-09-19T14:21:38;6.00;;;2.15;;
17796;SDS011;55596;53.554;9.916;2023-09-19T14:24:07;7.47;;;2.28;;
17796;SDS011;55596;53.554;9.916;2023-09-19T14:26:40;7.30;;;2.80;;
17796;SDS011;55596;53.554;9.916;2023-09-19T14:29:09;8.02;;;2.30;;
17796;SDS011;55596;53.554;9.916;2023-09-19T14:31:38;8.13;;;2.38;;
17796;SDS011;55596;53.554;9.916;2023-09-19T14:34:07;10.30;;;2.67;;
17796;SDS011;55596;53.554;9.916;2023-09-19T14:36:48;10.75;;;2.55;;
17796;SDS011;55596;53.554;9.916;2023-09-19T14:39:16;9.02;;;2.85;;
17796;SDS011;55596;53.554;9.916;2023-09-19T14:41:57;9.55;;;2.33;;
17796;SDS011;55596;53.554;9.916;2023-09-19T14:44:29;10.52;;;3.22;;
17796;SDS011;55596;53.554;9.916;2023-09-19T14:47:10;6.50;;;2.20;;
17796;SDS011;55596;53.554;9.916;2023-09-19T14:49:51;9.70;;;2.42;;
17796;SDS011;55596;53.554;9.916;2023-09-19T14:52:19;9.40;;;2.72;;
17796;SDS011;55596;53.554;9.916;2023-09-19T14:55:00;10.85;;;2.65;;
17796;SDS011;55596;53.554;9.916;2023-09-19T14:57:29;8.30;;;2.10;;
17796;SDS011;55596;53.554;9.916;2023-09-19T14:59:58;10.90;;;2.22;;
17796;SDS011;55596;53.554;9.916;2023-09-19T15:02:26;9.73;;;2.67;;
17796;SDS011;55596;53.554;9.916;2023-09-19T15:04:53;8.03;;;2.23;;
17796;SDS011;55596;53.554;9.916;2023-09-19T15:07:21;9.37;;;2.50;;
17796;SDS011;55596;53.554;9.916;2023-09-19T15:09:52;8.50;;;2.23;;
17796;SDS011;55596;53.554;9.916;2023-09-19T15:12:22;10.17;;;2.37;;
17796;SDS011;55596;53.554;9.916;2023-09-19T15:14:50;12.17;;;2.43;;
17796;SDS011;55596;53.554;9.916;2023-09-19T15:17:18;8.90;;;2.40;;
17796;SDS011;55596;53.554;9.916;2023-09-19T15:19:46;13.53;;;2.73;;
17796;SDS011;55596;53.554;9.916;2023-09-19T15:22:13;9.53;;;2.10;;
17796;SDS011;55596;53.554;9.916;2023-09-19T15:24:40;13.77;;;2.27;;
17796;SDS011;55596;53.554;9.916;2023-09-19T15:27:08;9.27;;;1.90;;
17796;SDS011;55596;53.554;9.916;2023-09-19T15:29:38;9.50;;;2.53;;
17796;SDS011;55596;53.554;9.916;2023-09-19T15:32:09;12.20;;;3.10;;
17796;SDS011;55596;53.554;9.916;2023-09-19T15:34:38;8.17;;;2.10;;
17796;SDS011;55596;53.554;9.916;2023-09-19T15:37:05;9.63;;;2.37;;
17796;SDS011;55596;53.554;9.916;2023-09-19T15:39:33;11.10;;;2.93;;
17796;SDS011;55596;53.554;9.916;2023-09-19T15:42:02;10.23;;;2.30;;
17796;SDS011;55596;53.554;9.916;2023-09-19T15:44:30;10.37;;;2.67;;
17796;SDS011;55596;53.554;9.916;2023-09-19T15:46:57;9.33;;;2.73;;
17796;SDS011;55596;53.554;9.916;2023-09-19T15:49:25;10.03;;;2.47;;
17796;SDS011;55596;53.554;9.916;2023-09-19T15:51:56;8.63;;;2.60;;